Kathleen, Georgia
Current Conditions -  °F | °C
As of 6:15 PM on Friday 19 Dec 2014 (Local Time) from KPXE Reporting Station
Clear Clear  
Wind Chill: 53°   Ceiling: Unl
Heat Index: 53°   Visibility: 10mi
Dew Point: 41°   Wind: 0mph
Humidity: 63%   Direction: NA
Pressure: 30.11"   Gusts: NA
Location:  32.5°N, 83.61°W
Report Text: KPXE 192315Z AUTO 00000KT 10SM CLR 12/05 A3011 RMK AO2 T01160048
Loading
Personal Weather Stations






























Interactive Weather Map New forecast layout! Learn more

10-Day Weather Forecast

Advertisements
Track Severe Weather on mobile